createdAt,value
2022-10-16T00:00:59.329Z,10.18
2022-10-16T00:03:29.558Z,10.15
2022-10-16T00:06:01.121Z,10.09
2022-10-16T00:08:29.149Z,10.06
2022-10-16T00:11:34.562Z,10.02
2022-10-16T00:14:04.243Z,9.95
2022-10-16T00:16:32.102Z,9.87
2022-10-16T00:18:59.473Z,9.85
2022-10-16T00:21:28.972Z,9.78
2022-10-16T00:24:02.295Z,9.76
2022-10-16T00:26:31.228Z,9.75
2022-10-16T00:28:58.288Z,9.76
2022-10-16T00:31:25.949Z,9.80
2022-10-16T00:33:53.554Z,9.80
2022-10-16T00:36:22.940Z,9.84
2022-10-16T00:38:55.950Z,9.79
2022-10-16T00:41:24.868Z,9.79
2022-10-16T00:43:56.607Z,9.78
2022-10-16T00:46:27.780Z,9.79
2022-10-16T00:49:02.912Z,9.80
2022-10-16T00:51:36.574Z,9.78
2022-10-16T00:54:07.955Z,9.77
2022-10-16T00:56:35.084Z,9.75
2022-10-16T00:59:08.016Z,9.76
2022-10-16T01:01:35.075Z,9.74
2022-10-16T01:04:02.044Z,9.69
2022-10-16T01:06:47.927Z,9.69
2022-10-16T01:09:20.866Z,9.67
2022-10-16T01:12:08.727Z,9.56
2022-10-16T01:14:46.978Z,9.46
2022-10-16T01:17:18.956Z,9.46
2022-10-16T01:20:02.960Z,9.47
2022-10-16T01:22:40.785Z,9.45
2022-10-16T01:25:17.321Z,9.41
2022-10-16T01:27:49.552Z,9.35
2022-10-16T01:30:27.394Z,9.30
2022-10-16T01:33:00.644Z,9.27
2022-10-16T01:35:30.159Z,9.27
2022-10-16T01:38:06.008Z,9.32
2022-10-16T01:40:35.970Z,9.33
2022-10-16T01:43:20.239Z,9.37
2022-10-16T01:45:48.410Z,9.39
2022-10-16T01:48:20.273Z,9.44
2022-10-16T01:51:03.808Z,9.42
2022-10-16T01:53:31.860Z,9.41
2022-10-16T01:56:01.461Z,9.41
2022-10-16T01:58:35.641Z,9.42
2022-10-16T02:01:06.002Z,9.43
2022-10-16T02:03:34.864Z,9.44
2022-10-16T02:06:01.965Z,9.36
2022-10-16T02:08:31.000Z,9.35
2022-10-16T02:10:59.379Z,9.37
2022-10-16T02:13:35.508Z,9.36
2022-10-16T02:16:02.639Z,9.37
2022-10-16T02:18:31.868Z,9.38
2022-10-16T02:21:04.064Z,9.38
2022-10-16T02:23:55.454Z,9.38
2022-10-16T02:26:32.751Z,9.33
2022-10-16T02:29:05.876Z,9.33
2022-10-16T02:31:37.295Z,9.33
2022-10-16T02:34:06.201Z,9.34
2022-10-16T02:36:34.612Z,9.33
2022-10-16T02:39:02.608Z,9.33
2022-10-16T02:41:29.820Z,9.32
2022-10-16T02:43:56.807Z,9.33
2022-10-16T02:46:23.924Z,9.30
2022-10-16T02:48:50.824Z,9.30
2022-10-16T02:51:17.791Z,9.16
2022-10-16T02:53:44.733Z,9.14
2022-10-16T02:56:11.648Z,9.09
2022-10-16T02:58:38.618Z,9.07
2022-10-16T03:01:05.782Z,9.05
2022-10-16T03:03:32.961Z,9.03
2022-10-16T03:06:01.057Z,9.01
2022-10-16T03:08:27.981Z,9.00
2022-10-16T03:10:55.203Z,8.96
2022-10-16T03:13:22.421Z,8.95
2022-10-16T03:15:49.800Z,8.93
2022-10-16T03:18:16.700Z,8.92
2022-10-16T03:20:44.986Z,8.92
2022-10-16T03:23:12.497Z,8.91
2022-10-16T03:25:39.715Z,8.91
2022-10-16T03:28:07.231Z,8.92
2022-10-16T03:30:34.840Z,8.91
2022-10-16T03:33:01.712Z,8.90
2022-10-16T03:35:29.333Z,8.89
2022-10-16T03:37:57.531Z,8.86
2022-10-16T03:40:24.680Z,8.87
2022-10-16T03:42:51.881Z,8.85
2022-10-16T03:45:19.106Z,8.83
2022-10-16T03:47:45.982Z,8.82
2022-10-16T03:50:13.611Z,8.81
2022-10-16T03:52:40.503Z,8.80
2022-10-16T03:55:08.762Z,8.79
2022-10-16T03:57:36.081Z,8.77
2022-10-16T04:00:04.136Z,8.75
2022-10-16T04:02:39.376Z,8.74
2022-10-16T04:05:06.913Z,8.73
2022-10-16T04:07:33.880Z,8.70
2022-10-16T04:10:01.602Z,8.70
2022-10-16T04:12:28.773Z,8.70
2022-10-16T04:14:56.510Z,8.67
2022-10-16T04:17:23.927Z,8.64
2022-10-16T04:19:51.345Z,8.60
2022-10-16T04:22:18.269Z,8.58
2022-10-16T04:24:45.700Z,8.58
2022-10-16T04:27:12.620Z,8.56
2022-10-16T04:29:39.761Z,8.57
2022-10-16T04:32:07.089Z,8.57
2022-10-16T04:34:34.417Z,8.56
2022-10-16T04:37:01.509Z,8.52
2022-10-16T04:39:28.414Z,8.46
2022-10-16T04:41:55.379Z,8.41
2022-10-16T04:44:22.362Z,8.36
2022-10-16T04:46:51.629Z,8.30
2022-10-16T04:49:18.674Z,8.23
2022-10-16T04:51:45.636Z,8.19
2022-10-16T04:54:12.642Z,8.15
2022-10-16T04:56:47.618Z,8.12
2022-10-16T04:59:16.156Z,8.08
2022-10-16T05:01:43.319Z,8.06
2022-10-16T05:04:10.557Z,8.07
2022-10-16T05:06:39.607Z,7.98
2022-10-16T05:09:07.042Z,7.92
2022-10-16T05:11:34.075Z,7.88
2022-10-16T05:14:01.848Z,7.90
2022-10-16T05:16:28.852Z,7.89
2022-10-16T05:19:22.467Z,7.90
2022-10-16T05:21:43.770Z,7.99
2022-10-16T05:24:11.071Z,8.13
2022-10-16T05:26:38.171Z,8.26
2022-10-16T05:29:05.305Z,8.35
2022-10-16T05:31:32.710Z,8.48
2022-10-16T05:34:01.023Z,8.59
2022-10-16T05:36:28.239Z,8.74
2022-10-16T05:38:55.399Z,8.81
2022-10-16T05:41:22.939Z,8.86
2022-10-16T05:43:49.942Z,8.91
2022-10-16T05:46:18.378Z,9.04
2022-10-16T05:48:45.251Z,9.17
2022-10-16T05:51:14.215Z,9.30
2022-10-16T05:56:14.667Z,9.57
2022-10-16T05:58:43.959Z,9.68
2022-10-16T06:01:17.418Z,9.80
2022-10-16T06:03:44.783Z,9.85
2022-10-16T06:06:21.275Z,9.91
2022-10-16T06:08:50.182Z,9.87
2022-10-16T06:11:22.901Z,9.90
2022-10-16T06:13:54.022Z,9.99
2022-10-16T06:16:21.519Z,10.08
2022-10-16T06:18:48.659Z,10.21
2022-10-16T06:21:18.821Z,10.34
2022-10-16T06:23:48.942Z,10.45
2022-10-16T06:26:18.665Z,10.55
2022-10-16T06:28:45.912Z,10.65
2022-10-16T06:31:14.062Z,10.72
2022-10-16T06:33:41.495Z,10.79
2022-10-16T06:36:16.521Z,10.89
2022-10-16T06:38:44.530Z,10.97
2022-10-16T06:41:17.435Z,11.08
2022-10-16T06:43:47.446Z,11.13
2022-10-16T06:46:17.363Z,11.21
2022-10-16T06:48:44.788Z,11.26
2022-10-16T06:51:17.174Z,11.30
2022-10-16T06:54:04.151Z,11.42
2022-10-16T06:56:33.381Z,11.50
2022-10-16T06:59:00.467Z,11.54
2022-10-16T07:01:27.927Z,11.64
2022-10-16T07:03:55.036Z,11.80
2022-10-16T07:06:24.115Z,11.95
2022-10-16T07:08:52.061Z,12.07
2022-10-16T07:11:23.571Z,12.20
2022-10-16T07:13:55.016Z,12.16
2022-10-16T07:16:26.637Z,12.21
2022-10-16T07:19:00.325Z,12.27
2022-10-16T07:21:31.031Z,12.29
2022-10-16T07:24:00.671Z,12.42
2022-10-16T07:26:31.129Z,12.46
2022-10-16T07:28:58.517Z,12.56
2022-10-16T07:31:26.138Z,12.70
2022-10-16T07:33:53.203Z,12.87
2022-10-16T07:36:21.346Z,13.04
2022-10-16T07:38:48.829Z,13.20
2022-10-16T07:41:18.278Z,13.39
2022-10-16T07:43:52.272Z,13.55
2022-10-16T07:46:21.853Z,13.63
2022-10-16T07:48:49.468Z,13.55
2022-10-16T07:51:20.495Z,13.52
2022-10-16T07:53:48.872Z,13.45
2022-10-16T07:56:17.961Z,13.45
2022-10-16T07:58:45.596Z,13.63
2022-10-16T08:01:15.058Z,13.84
2022-10-16T08:03:47.572Z,13.96
2022-10-16T08:06:14.778Z,13.84
2022-10-16T08:08:42.991Z,13.87
2022-10-16T08:11:10.570Z,13.83
2022-10-16T08:13:37.727Z,13.76
2022-10-16T08:16:08.944Z,13.80
2022-10-16T08:18:37.839Z,13.75
2022-10-16T08:21:05.882Z,13.85
2022-10-16T08:23:34.283Z,13.95
2022-10-16T08:26:07.424Z,14.07
2022-10-16T08:28:35.346Z,14.13
2022-10-16T08:33:47.911Z,14.53
2022-10-16T08:36:16.630Z,14.81
2022-10-16T08:38:44.569Z,15.04
2022-10-16T08:41:14.362Z,15.21
2022-10-16T08:44:06.403Z,15.25
2022-10-16T08:46:44.803Z,15.39
2022-10-16T08:49:16.655Z,15.60
2022-10-16T08:51:44.372Z,15.75
2022-10-16T08:54:38.480Z,15.92
2022-10-16T08:57:10.291Z,16.01
2022-10-16T08:59:38.219Z,16.06
2022-10-16T09:02:40.140Z,16.07
2022-10-16T09:05:25.674Z,16.14
2022-10-16T09:08:09.182Z,16.09
2022-10-16T09:10:58.553Z,16.10
2022-10-16T09:13:36.228Z,16.14
2022-10-16T09:16:16.782Z,16.17
2022-10-16T09:18:50.003Z,16.36
2022-10-16T09:21:24.183Z,16.39
2022-10-16T09:23:52.340Z,16.36
2022-10-16T09:28:54.006Z,16.55
2022-10-16T09:31:23.741Z,16.69
2022-10-16T09:34:02.955Z,16.94
2022-10-16T09:36:32.412Z,17.14
2022-10-16T09:39:05.909Z,17.34
2022-10-16T09:41:37.147Z,17.44
2022-10-16T09:44:07.720Z,17.48
2022-10-16T09:46:37.730Z,17.48
2022-10-16T09:49:19.951Z,17.50
2022-10-16T09:51:47.666Z,17.57
2022-10-16T09:54:22.072Z,17.63
2022-10-16T09:56:53.206Z,17.73
2022-10-16T09:59:32.753Z,17.90
2022-10-16T10:02:05.076Z,18.00
2022-10-16T10:04:43.304Z,18.09
2022-10-16T10:07:19.846Z,18.19
2022-10-16T10:09:47.991Z,18.25
2022-10-16T10:12:27.285Z,18.36
2022-10-16T10:14:58.179Z,18.45
2022-10-16T10:17:29.604Z,18.56
2022-10-16T10:20:02.517Z,18.54
2022-10-16T10:22:46.650Z,18.54
2022-10-16T10:25:14.249Z,18.64
2022-10-16T10:28:05.386Z,18.51
2022-10-16T10:30:54.921Z,18.66
2022-10-16T10:33:40.970Z,18.87
2022-10-16T10:36:34.472Z,19.02
2022-10-16T10:39:07.375Z,19.17
2022-10-16T10:41:41.190Z,19.36
2022-10-16T10:44:23.196Z,19.49
2022-10-16T10:47:00.340Z,19.63
2022-10-16T10:49:30.417Z,19.72
2022-10-16T10:52:13.081Z,19.82
2022-10-16T10:55:11.157Z,19.71
2022-10-16T10:57:57.061Z,19.72
2022-10-16T11:00:45.468Z,19.79
2022-10-16T11:03:19.296Z,19.83
2022-10-16T11:06:17.811Z,20.06
2022-10-16T11:08:51.881Z,20.20
2022-10-16T11:11:30.849Z,20.21
2022-10-16T11:14:13.280Z,20.58
2022-10-16T11:16:49.295Z,20.84
2022-10-16T11:19:27.367Z,21.20
2022-10-16T11:22:04.321Z,21.45
2022-10-16T11:24:48.506Z,21.61
2022-10-16T11:27:27.576Z,21.70
2022-10-16T11:30:02.186Z,21.93
2022-10-16T11:32:59.232Z,22.20
2022-10-16T11:35:40.028Z,22.52
2022-10-16T11:38:41.688Z,22.76
2022-10-16T11:41:30.480Z,23.05
2022-10-16T11:44:32.591Z,23.36
2022-10-16T11:47:33.683Z,23.62
2022-10-16T11:49:59.511Z,23.71
2022-10-16T11:52:54.987Z,23.80
2022-10-16T11:55:28.248Z,23.73
2022-10-16T11:58:04.251Z,24.03
2022-10-16T12:00:46.712Z,24.35
2022-10-16T12:03:14.661Z,24.60
2022-10-16T12:06:07.496Z,24.88
2022-10-16T12:08:36.588Z,25.19
2022-10-16T12:11:31.120Z,25.42
2022-10-16T12:14:13.733Z,25.74
2022-10-16T12:16:54.295Z,26.01
2022-10-16T12:19:23.291Z,26.19
2022-10-16T12:21:52.215Z,26.35
2022-10-16T12:24:35.493Z,26.52
2022-10-16T12:27:03.024Z,26.66
2022-10-16T12:29:45.315Z,26.88
2022-10-16T12:32:47.335Z,27.10
2022-10-16T12:35:27.983Z,27.31
2022-10-16T12:38:06.032Z,27.54
2022-10-16T12:40:37.185Z,27.73
2022-10-16T12:43:33.410Z,27.88
2022-10-16T12:46:07.172Z,27.99
2022-10-16T12:48:48.416Z,28.03
2022-10-16T12:51:29.288Z,28.07
2022-10-16T12:54:14.895Z,28.23
2022-10-16T12:57:01.433Z,28.49
2022-10-16T12:59:40.753Z,28.71
2022-10-16T13:02:29.389Z,28.81
2022-10-16T13:04:56.500Z,28.94
2022-10-16T13:07:33.143Z,29.04
2022-10-16T13:10:18.856Z,29.09
2022-10-16T13:13:07.161Z,29.12
2022-10-16T13:15:53.983Z,29.33
2022-10-16T13:18:35.482Z,29.42
2022-10-16T13:21:18.118Z,29.51
2022-10-16T13:24:25.240Z,29.62
2022-10-16T13:27:03.694Z,29.69
2022-10-16T13:29:33.381Z,29.83
2022-10-16T13:32:03.147Z,29.89
2022-10-16T13:34:30.452Z,29.92
2022-10-16T13:36:58.560Z,29.98
2022-10-16T13:39:29.632Z,30.05
2022-10-16T13:42:28.393Z,30.21
2022-10-16T13:44:57.338Z,30.36
2022-10-16T13:47:26.972Z,30.53
2022-10-16T13:50:02.700Z,30.61
2022-10-16T13:52:30.402Z,30.69
2022-10-16T13:55:00.960Z,30.66
2022-10-16T13:57:30.097Z,30.74
2022-10-16T13:59:57.125Z,30.80
2022-10-16T14:02:41.217Z,30.85
2022-10-16T14:05:11.825Z,30.90
2022-10-16T14:07:39.633Z,30.82
2022-10-16T14:10:19.594Z,30.71
2022-10-16T14:12:55.011Z,30.76
2022-10-16T14:15:22.516Z,30.87
2022-10-16T14:17:52.981Z,30.87
2022-10-16T14:20:21.866Z,30.91
2022-10-16T14:23:01.187Z,30.95
2022-10-16T14:25:31.426Z,30.97
2022-10-16T14:30:37.011Z,31.11
2022-10-16T14:33:07.327Z,31.08
2022-10-16T14:35:37.966Z,31.01
2022-10-16T14:38:07.239Z,30.86
2022-10-16T14:40:37.246Z,30.82
2022-10-16T14:43:06.050Z,30.75
2022-10-16T14:45:35.942Z,30.74
2022-10-16T14:48:08.041Z,30.60
2022-10-16T14:50:34.992Z,30.53
2022-10-16T14:53:02.007Z,30.48
2022-10-16T14:55:28.993Z,30.44
2022-10-16T14:57:59.586Z,30.42
2022-10-16T15:00:28.043Z,30.33
2022-10-16T15:02:55.028Z,30.29
2022-10-16T15:05:28.550Z,30.11
2022-10-16T15:07:56.615Z,29.97
2022-10-16T15:10:26.254Z,29.88
2022-10-16T15:12:53.685Z,29.60
2022-10-16T15:15:23.847Z,29.30
2022-10-16T15:17:56.687Z,28.93
2022-10-16T15:20:25.794Z,28.59
2022-10-16T15:22:52.827Z,28.23
2022-10-16T15:25:43.536Z,27.87
2022-10-16T15:28:11.790Z,27.60
2022-10-16T15:30:39.597Z,27.35
2022-10-16T15:33:12.574Z,27.12
2022-10-16T15:35:39.543Z,26.91
2022-10-16T15:38:06.552Z,26.62
2022-10-16T15:40:33.511Z,26.17
2022-10-16T15:43:00.449Z,25.72
2022-10-16T15:45:27.329Z,25.25
2022-10-16T15:47:54.257Z,24.83
2022-10-16T15:50:21.308Z,24.50
2022-10-16T15:52:48.192Z,24.19
2022-10-16T15:55:15.632Z,23.87
2022-10-16T15:57:43.904Z,23.54
2022-10-16T16:00:14.349Z,23.29
2022-10-16T16:02:45.118Z,22.96
2022-10-16T16:05:12.525Z,22.63
2022-10-16T16:07:41.375Z,22.33
2022-10-16T16:10:11.154Z,22.04
2022-10-16T16:12:39.127Z,21.77
2022-10-16T16:15:07.800Z,21.48
2022-10-16T16:17:35.859Z,21.23
2022-10-16T16:20:03.967Z,20.97
2022-10-16T16:22:31.555Z,20.73
2022-10-16T16:24:58.693Z,20.51
2022-10-16T16:27:31.012Z,20.37
2022-10-16T16:29:58.560Z,19.97
2022-10-16T16:32:25.821Z,19.63
2022-10-16T16:34:52.802Z,19.35
2022-10-16T16:37:19.699Z,19.05
2022-10-16T16:39:46.609Z,18.86
2022-10-16T16:42:13.542Z,18.64
2022-10-16T16:44:40.505Z,18.48
2022-10-16T16:47:07.486Z,18.36
2022-10-16T16:49:34.472Z,18.25
2022-10-16T16:52:01.454Z,18.15
2022-10-16T16:54:28.639Z,18.05
2022-10-16T16:56:55.634Z,17.95
2022-10-16T16:59:23.119Z,17.83
2022-10-16T17:01:55.582Z,17.72
2022-10-16T17:04:23.518Z,17.62
2022-10-16T17:06:50.499Z,17.48
2022-10-16T17:09:17.691Z,17.37
2022-10-16T17:11:45.784Z,17.23
2022-10-16T17:14:13.362Z,17.00
2022-10-16T17:16:41.121Z,16.87
2022-10-16T17:19:11.509Z,16.75
2022-10-16T17:21:38.459Z,16.55
2022-10-16T17:24:06.527Z,16.40
2022-10-16T17:26:34.074Z,16.22
2022-10-16T17:29:02.590Z,16.09
2022-10-16T17:31:32.362Z,15.99
2022-10-16T17:34:00.834Z,15.85
2022-10-16T17:36:33.125Z,15.78
2022-10-16T17:39:04.784Z,15.64
2022-10-16T17:41:33.305Z,15.62
2022-10-16T17:44:00.641Z,15.53
2022-10-16T17:46:28.281Z,15.51
2022-10-16T17:48:55.902Z,15.48
2022-10-16T17:51:29.246Z,15.47
2022-10-16T17:53:58.713Z,15.42
2022-10-16T17:56:26.695Z,15.37
2022-10-16T17:58:56.927Z,15.34
2022-10-16T18:01:25.420Z,15.36
2022-10-16T18:03:55.064Z,15.30
2022-10-16T18:06:23.438Z,15.27
2022-10-16T18:08:51.961Z,15.26
2022-10-16T18:11:20.136Z,15.22
2022-10-16T18:13:47.690Z,15.16
2022-10-16T18:16:15.901Z,15.12
2022-10-16T18:18:48.194Z,15.05
2022-10-16T18:21:18.922Z,15.03
2022-10-16T18:23:50.909Z,14.99
2022-10-16T18:26:20.843Z,14.95
2022-10-16T18:28:48.500Z,14.96
2022-10-16T18:31:17.451Z,14.90
2022-10-16T18:33:48.639Z,14.89
2022-10-16T18:36:18.217Z,14.85
2022-10-16T18:38:45.619Z,14.83
2022-10-16T18:41:13.435Z,14.82
2022-10-16T18:43:41.141Z,14.79
2022-10-16T18:46:13.326Z,14.77
2022-10-16T18:48:41.101Z,14.73
2022-10-16T18:51:16.266Z,14.74
2022-10-16T18:53:45.709Z,14.71
2022-10-16T18:56:17.111Z,14.68
2022-10-16T18:58:46.181Z,14.65
2022-10-16T19:01:16.392Z,14.59
2022-10-16T19:03:44.415Z,14.57
2022-10-16T19:06:14.530Z,14.48
2022-10-16T19:08:42.662Z,14.46
2022-10-16T19:11:13.106Z,14.41
2022-10-16T19:13:40.129Z,14.36
2022-10-16T19:16:20.492Z,14.32
2022-10-16T19:18:54.531Z,14.20
2022-10-16T19:21:22.698Z,14.14
2022-10-16T19:23:54.480Z,14.10
2022-10-16T19:26:23.636Z,14.02
2022-10-16T19:28:51.900Z,13.96
2022-10-16T19:31:21.592Z,13.90
2022-10-16T19:33:53.115Z,13.83
2022-10-16T19:36:25.874Z,13.78
2022-10-16T19:39:01.887Z,13.78
2022-10-16T19:41:31.158Z,13.75
2022-10-16T19:44:03.033Z,13.73
2022-10-16T19:46:31.631Z,13.64
2022-10-16T19:49:02.142Z,13.59
2022-10-16T19:51:30.586Z,13.49
2022-10-16T19:54:05.480Z,13.47
2022-10-16T19:56:35.125Z,13.42
2022-10-16T19:59:02.076Z,13.38
2022-10-16T20:01:31.305Z,13.36
2022-10-16T20:03:59.560Z,13.31
2022-10-16T20:06:27.483Z,13.23
2022-10-16T20:08:55.765Z,13.14
2022-10-16T20:11:25.664Z,13.11
2022-10-16T20:13:52.569Z,13.09
2022-10-16T20:16:20.638Z,13.06
2022-10-16T20:18:50.128Z,13.03
2022-10-16T20:21:20.444Z,13.00
2022-10-16T20:23:49.046Z,12.99
2022-10-16T20:26:17.841Z,13.00
2022-10-16T20:28:45.275Z,13.02
2022-10-16T20:31:21.018Z,13.05
2022-10-16T20:33:49.305Z,13.02
2022-10-16T20:36:16.806Z,13.01
2022-10-16T20:38:45.113Z,13.00
2022-10-16T20:41:12.177Z,12.97
2022-10-16T20:46:16.835Z,12.93
2022-10-16T20:48:44.834Z,12.88
2022-10-16T20:51:20.729Z,12.87
2022-10-16T20:53:53.014Z,12.87
2022-10-16T20:56:20.482Z,12.83
2022-10-16T20:58:47.638Z,12.82
2022-10-16T21:01:17.024Z,12.80
2022-10-16T21:03:45.202Z,12.76
2022-10-16T21:06:12.836Z,12.71
2022-10-16T21:08:42.965Z,12.68
2022-10-16T21:11:12.461Z,12.68
2022-10-16T21:13:40.341Z,12.64
2022-10-16T21:16:08.655Z,12.65
2022-10-16T21:18:35.648Z,12.64
2022-10-16T21:21:02.663Z,12.61
2022-10-16T21:23:29.688Z,12.55
2022-10-16T21:25:56.707Z,12.52
2022-10-16T21:28:24.158Z,12.51
2022-10-16T21:30:51.435Z,12.52
2022-10-16T21:33:18.294Z,12.53
2022-10-16T21:35:45.417Z,12.53
2022-10-16T21:38:12.880Z,12.52
2022-10-16T21:40:40.322Z,12.53
2022-10-16T21:43:07.184Z,12.55
2022-10-16T21:45:35.098Z,12.54
2022-10-16T21:48:02.094Z,12.53
2022-10-16T21:50:29.399Z,12.51
2022-10-16T21:52:56.504Z,12.52
2022-10-16T21:55:23.822Z,12.49
2022-10-16T21:57:50.782Z,12.46
2022-10-16T22:00:18.134Z,12.37
2022-10-16T22:02:44.998Z,12.27
2022-10-16T22:05:12.149Z,12.24
2022-10-16T22:07:39.318Z,12.24
2022-10-16T22:10:06.983Z,12.24
2022-10-16T22:12:33.870Z,12.24
2022-10-16T22:15:01.354Z,12.25
2022-10-16T22:17:28.569Z,12.27
2022-10-16T22:19:55.863Z,12.26
2022-10-16T22:22:22.961Z,12.27
2022-10-16T22:24:50.130Z,12.26
2022-10-16T22:27:17.054Z,12.25
2022-10-16T22:29:44.794Z,12.22
2022-10-16T22:32:11.654Z,12.15
2022-10-16T22:34:39.554Z,12.03
2022-10-16T22:37:06.728Z,11.97
2022-10-16T22:39:33.891Z,11.92
2022-10-16T22:42:01.072Z,11.94
2022-10-16T22:44:29.418Z,11.95
2022-10-16T22:46:57.314Z,11.89
2022-10-16T22:49:25.959Z,11.75
2022-10-16T22:51:53.003Z,11.69
2022-10-16T22:54:20.152Z,11.69
2022-10-16T22:56:47.057Z,11.59
2022-10-16T22:59:15.160Z,11.43
2022-10-16T23:01:42.705Z,11.39
2022-10-16T23:04:09.940Z,11.34
2022-10-16T23:06:37.427Z,11.20
2022-10-16T23:09:04.599Z,11.15
2022-10-16T23:11:31.594Z,11.09
2022-10-16T23:13:58.931Z,11.09
2022-10-16T23:16:25.886Z,11.07
2022-10-16T23:18:53.769Z,11.09
2022-10-16T23:21:25.773Z,11.04
2022-10-16T23:23:54.998Z,11.05
2022-10-16T23:26:27.002Z,11.04
2022-10-16T23:28:58.449Z,11.04
2022-10-16T23:31:27.153Z,11.05
2022-10-16T23:33:56.564Z,11.06
2022-10-16T23:36:24.912Z,11.03
2022-10-16T23:38:52.674Z,11.10
2022-10-16T23:41:20.673Z,11.14
2022-10-16T23:43:47.874Z,11.15
2022-10-16T23:46:15.729Z,11.15
2022-10-16T23:48:42.733Z,11.16
2022-10-16T23:51:10.679Z,11.16
2022-10-16T23:53:38.597Z,11.14
2022-10-16T23:56:06.130Z,11.11
2022-10-16T23:58:33.012Z,11.06
